createdAt,value
2022-08-22T00:02:32.975Z,101864.91
2022-08-22T00:05:10.269Z,101864.19
2022-08-22T00:07:49.233Z,101863.34
2022-08-22T00:10:27.886Z,101864.25
2022-08-22T00:13:14.564Z,101861.88
2022-08-22T00:15:47.428Z,101872.25
2022-08-22T00:18:24.900Z,101868.72
2022-08-22T00:20:51.251Z,101863.53
2022-08-22T00:23:44.779Z,101862.91
2022-08-22T00:26:21.150Z,101862.91
2022-08-22T00:28:55.897Z,101861.31
2022-08-22T00:31:29.060Z,101860.44
2022-08-22T00:34:10.151Z,101863.03
2022-08-22T00:36:47.654Z,101862.31
2022-08-22T00:39:26.870Z,101868.47
2022-08-22T00:42:14.117Z,101858.13
2022-08-22T00:44:59.954Z,101873.53
2022-08-22T00:47:44.696Z,101863.16
2022-08-22T00:50:34.350Z,101870.28
2022-08-22T00:53:33.068Z,101873.69
2022-08-22T00:56:24.529Z,101878.22
2022-08-22T00:59:23.112Z,101878.28
2022-08-22T01:02:03.617Z,101871.63
2022-08-22T01:05:01.092Z,101872.44
2022-08-22T01:07:54.235Z,101872.47
2022-08-22T01:11:01.333Z,101871.81
2022-08-22T01:14:00.292Z,101870.22
2022-08-22T01:16:48.009Z,101877.91
2022-08-22T01:19:25.318Z,101876.47
2022-08-22T01:22:14.179Z,101877.19
2022-08-22T01:25:18.321Z,101878.97
2022-08-22T01:28:17.310Z,101875.63
2022-08-22T01:31:12.087Z,101869.81
2022-08-22T01:34:15.901Z,101878.53
2022-08-22T01:37:10.693Z,101878.34
2022-08-22T01:39:43.174Z,101876.72
2022-08-22T01:42:40.382Z,101876.84
2022-08-22T01:45:35.923Z,101874.16
2022-08-22T01:48:10.773Z,101874.25
2022-08-22T01:50:43.549Z,101872.81
2022-08-22T01:53:22.732Z,101876.19
2022-08-22T01:56:12.066Z,101866.63
2022-08-22T01:58:45.872Z,101869.16
2022-08-22T02:01:37.248Z,101867.28
2022-08-22T02:04:14.353Z,101871.44
2022-08-22T02:06:44.718Z,101872.91
2022-08-22T02:09:30.711Z,101871.13
2022-08-22T02:12:22.112Z,101871.22
2022-08-22T02:15:20.613Z,101874.91
2022-08-22T02:18:14.412Z,101869.88
2022-08-22T02:21:05.070Z,101865.66
2022-08-22T02:24:00.771Z,101862.22
2022-08-22T02:26:51.333Z,101864.78
2022-08-22T02:29:29.470Z,101853.63
2022-08-22T02:32:05.859Z,101857.16
2022-08-22T02:34:39.612Z,101856.28
2022-08-22T02:37:17.879Z,101859.88
2022-08-22T02:40:06.261Z,101857.47
2022-08-22T02:42:48.965Z,101851.53
2022-08-22T02:45:40.224Z,101853.19
2022-08-22T02:48:21.794Z,101847.25
2022-08-22T02:51:01.839Z,101864.47
2022-08-22T02:53:55.238Z,101855.75
2022-08-22T02:56:32.395Z,101854.88
2022-08-22T02:59:27.049Z,101862.56
2022-08-22T03:01:55.129Z,101851.47
2022-08-22T03:04:30.692Z,101852.50
2022-08-22T03:07:12.496Z,101847.34
2022-08-22T03:09:49.915Z,101851.66
2022-08-22T03:12:41.786Z,101855.78
2022-08-22T03:15:30.524Z,101848.03
2022-08-22T03:18:06.835Z,101843.78
2022-08-22T03:20:44.446Z,101842.00
2022-08-22T03:23:23.896Z,101843.69
2022-08-22T03:26:01.301Z,101838.41
2022-08-22T03:28:59.129Z,101830.53
2022-08-22T03:31:28.989Z,101839.06
2022-08-22T03:34:22.908Z,101835.56
2022-08-22T03:37:02.545Z,101830.41
2022-08-22T03:39:48.626Z,101828.63
2022-08-22T03:42:27.176Z,101826.84
2022-08-22T03:44:56.556Z,101823.53
2022-08-22T03:48:10.206Z,101827.16
2022-08-22T03:51:01.166Z,101824.72
2022-08-22T03:53:45.941Z,101829.06
2022-08-22T03:56:38.743Z,101824.81
2022-08-22T03:59:10.194Z,101827.44
2022-08-22T04:01:58.246Z,101831.81
2022-08-22T04:05:00.625Z,101826.56
2022-08-22T04:07:49.854Z,101834.13
2022-08-22T04:10:56.454Z,101829.00
2022-08-22T04:13:47.370Z,101835.94
2022-08-22T04:16:41.161Z,101830.75
2022-08-22T04:19:40.323Z,101828.94
2022-08-22T04:22:25.524Z,101828.84
2022-08-22T04:24:54.421Z,101827.09
2022-08-22T04:27:30.080Z,101831.34
2022-08-22T04:30:01.869Z,101827.88
2022-08-22T04:32:44.238Z,101827.94
2022-08-22T04:35:34.730Z,101838.16
2022-08-22T04:38:10.329Z,101840.75
2022-08-22T04:40:46.565Z,101832.91
2022-08-22T04:43:30.501Z,101835.50
2022-08-22T04:46:16.034Z,101838.03
2022-08-22T04:48:56.945Z,101842.44
2022-08-22T04:51:33.479Z,101834.78
2022-08-22T04:54:32.553Z,101840.03
2022-08-22T04:57:16.762Z,101837.50
2022-08-22T04:59:43.368Z,101844.38
2022-08-22T05:02:12.812Z,101843.56
2022-08-22T05:04:46.808Z,101844.44
2022-08-22T05:07:29.107Z,101852.13
2022-08-22T05:10:12.005Z,101851.94
2022-08-22T05:12:51.372Z,101853.69
2022-08-22T05:15:33.367Z,101850.25
2022-08-22T05:18:08.592Z,101852.88
2022-08-22T05:20:39.264Z,101843.41
2022-08-22T05:23:26.125Z,101839.78
2022-08-22T05:25:56.875Z,101843.09
2022-08-22T05:28:53.570Z,101856.66
2022-08-22T05:31:28.879Z,101858.34
2022-08-22T05:34:02.527Z,101865.81
2022-08-22T05:36:35.130Z,101867.44
2022-08-22T05:39:25.324Z,101863.88
2022-08-22T05:41:54.393Z,101880.22
2022-08-22T05:44:25.218Z,101880.13
2022-08-22T05:47:01.651Z,101879.09
2022-08-22T05:49:28.016Z,101885.09
2022-08-22T05:52:31.807Z,101879.09
2022-08-22T05:55:10.212Z,101873.84
2022-08-22T05:57:42.169Z,101879.03
2022-08-22T06:00:12.977Z,101872.09
2022-08-22T06:03:01.095Z,101873.00
2022-08-22T06:05:31.242Z,101880.81
2022-08-22T06:08:13.782Z,101873.69
2022-08-22T06:10:48.061Z,101883.88
2022-08-22T06:13:41.515Z,101882.97
2022-08-22T06:16:17.318Z,101884.53
2022-08-22T06:18:45.844Z,101886.00
2022-08-22T06:21:21.352Z,101886.66
2022-08-22T06:24:13.608Z,101889.13
2022-08-22T06:33:16.476Z,101904.16
2022-08-22T06:37:47.321Z,101898.00
2022-08-22T06:39:52.051Z,101895.19
2022-08-22T06:42:37.770Z,101901.03
2022-08-22T06:45:58.282Z,101904.28
2022-08-22T06:48:25.269Z,101903.09
2022-08-22T06:50:55.733Z,101899.28
2022-08-22T06:53:32.713Z,101901.94
2022-08-22T06:56:07.393Z,101908.03
2022-08-22T06:58:38.660Z,101908.66
2022-08-22T07:01:16.720Z,101905.75
2022-08-22T07:03:50.705Z,101908.19
2022-08-22T07:06:20.922Z,101911.41
2022-08-22T07:08:52.937Z,101916.34
2022-08-22T07:11:23.315Z,101912.53
2022-08-22T07:14:03.704Z,101915.97
2022-08-22T07:16:32.552Z,101913.09
2022-08-22T07:18:59.573Z,101911.91
2022-08-22T07:21:32.629Z,101906.66
2022-08-22T07:24:03.135Z,101897.66
2022-08-22T07:26:44.549Z,101894.16
2022-08-22T07:29:38.625Z,101900.69
2022-08-22T07:33:25.172Z,101897.56
2022-08-22T07:36:09.009Z,101901.66
2022-08-22T07:38:51.048Z,101902.34
2022-08-22T07:41:42.476Z,101900.00
2022-08-22T07:44:25.443Z,101894.97
2022-08-22T07:47:10.098Z,101892.22
2022-08-22T07:50:07.407Z,101888.19
2022-08-22T07:52:48.820Z,101887.56
2022-08-22T07:55:27.072Z,101891.75
2022-08-22T07:58:05.070Z,101881.59
2022-08-22T08:00:35.391Z,101878.97
2022-08-22T08:03:08.857Z,101869.97
2022-08-22T08:05:56.270Z,101868.28
2022-08-22T08:08:37.778Z,101870.38
2022-08-22T08:11:21.022Z,101865.13
2022-08-22T08:14:01.579Z,101859.84
2022-08-22T08:16:53.355Z,101851.53
2022-08-22T08:19:42.168Z,101854.13
2022-08-22T08:22:32.947Z,101847.31
2022-08-22T08:25:13.995Z,101845.06
2022-08-22T08:28:06.729Z,101845.09
2022-08-22T08:31:07.738Z,101836.91
2022-08-22T08:33:56.503Z,101843.13
2022-08-22T08:36:41.271Z,101842.97
2022-08-22T08:39:35.296Z,101844.66
2022-08-22T08:43:00.790Z,101849.34
2022-08-22T08:46:03.766Z,101841.34
2022-08-22T08:49:06.418Z,101839.66
2022-08-22T08:51:59.182Z,101840.00
2022-08-22T08:54:57.946Z,101841.66
2022-08-22T09:00:17.790Z,101841.34
2022-08-22T09:02:48.675Z,101843.59
2022-08-22T09:08:12.572Z,101845.06
2022-08-22T09:11:14.369Z,101839.69
2022-08-22T09:14:22.682Z,101839.69
2022-08-22T09:17:11.395Z,101837.81
2022-08-22T09:19:49.265Z,101837.00
2022-08-22T09:22:27.310Z,101837.38
2022-08-22T09:25:40.556Z,101841.75
2022-08-22T09:28:24.474Z,101835.59
2022-08-22T09:31:44.947Z,101829.19
2022-08-22T09:34:25.665Z,101832.06
2022-08-22T09:37:14.939Z,101825.78
2022-08-22T09:39:49.569Z,101821.03
2022-08-22T09:43:13.683Z,101820.28
2022-08-22T09:45:55.686Z,101818.28
2022-08-22T09:48:38.390Z,101817.19
2022-08-22T09:51:33.289Z,101810.59
2022-08-22T09:54:31.279Z,101809.31
2022-08-22T09:57:01.763Z,101803.59
2022-08-22T10:00:05.191Z,101811.41
2022-08-22T10:02:55.453Z,101810.25
2022-08-22T10:05:46.506Z,101802.25
2022-08-22T10:08:55.661Z,101803.69
2022-08-22T10:11:32.353Z,101795.13
2022-08-22T10:14:09.106Z,101796.44
2022-08-22T10:17:02.623Z,101790.91
2022-08-22T10:20:10.562Z,101796.44
2022-08-22T10:23:00.331Z,101795.47
2022-08-22T10:25:49.875Z,101783.06
2022-08-22T10:28:50.118Z,101781.41
2022-08-22T10:32:00.083Z,101775.81
2022-08-22T10:35:21.557Z,101778.88
2022-08-22T10:57:28.950Z,101766.06
2022-08-22T11:00:22.429Z,101757.56
2022-08-22T11:03:03.981Z,101759.66
2022-08-22T11:05:50.016Z,101764.47
2022-08-22T11:08:47.638Z,101765.56
2022-08-22T11:11:35.331Z,101762.06
2022-08-22T11:14:13.713Z,101767.31
2022-08-22T11:16:55.209Z,101769.53
2022-08-22T11:19:34.141Z,101774.16
2022-08-22T11:22:14.230Z,101767.97
2022-08-22T11:24:56.388Z,101756.53
2022-08-22T11:27:51.178Z,101752.09
2022-08-22T11:31:03.703Z,101757.72
2022-08-22T11:34:06.926Z,101753.47
2022-08-22T11:37:02.991Z,101747.06
2022-08-22T11:40:07.566Z,101744.91
2022-08-22T11:43:05.974Z,101742.97
2022-08-22T11:45:43.440Z,101750.19
2022-08-22T11:48:39.652Z,101742.06
2022-08-22T11:51:25.344Z,101742.72
2022-08-22T11:54:31.080Z,101739.13
2022-08-22T11:57:33.438Z,101740.44
2022-08-22T12:00:23.969Z,101732.69
2022-08-22T12:03:08.785Z,101735.16
2022-08-22T12:05:44.045Z,101733.22
2022-08-22T12:08:22.269Z,101734.66
2022-08-22T12:11:26.574Z,101732.69
2022-08-22T12:14:06.165Z,101729.47
2022-08-22T12:17:02.246Z,101736.19
2022-08-22T12:20:16.259Z,101728.59
2022-08-22T12:23:08.648Z,101731.47
2022-08-22T12:25:51.386Z,101726.50
2022-08-22T12:28:31.660Z,101729.09
2022-08-22T12:31:27.277Z,101726.00
2022-08-22T12:34:20.811Z,101724.16
2022-08-22T12:36:56.420Z,101717.03
2022-08-22T12:39:41.753Z,101720.09
2022-08-22T12:42:44.872Z,101718.88
2022-08-22T12:45:50.862Z,101712.72
2022-08-22T12:48:48.191Z,101711.97
2022-08-22T12:51:23.783Z,101713.13
2022-08-22T12:53:53.475Z,101704.25
2022-08-22T12:56:56.945Z,101711.41
2022-08-22T12:59:39.373Z,101707.81
2022-08-22T13:02:26.806Z,101708.25
2022-08-22T13:05:00.147Z,101698.75
2022-08-22T13:07:34.005Z,101696.22
2022-08-22T13:10:35.202Z,101700.69
2022-08-22T13:13:12.192Z,101692.81
2022-08-22T13:15:41.969Z,101698.94
2022-08-22T13:18:29.209Z,101696.69
2022-08-22T13:21:01.553Z,101686.22
2022-08-22T13:23:39.614Z,101694.94
2022-08-22T13:26:32.026Z,101689.38
2022-08-22T13:29:26.738Z,101695.44
2022-08-22T13:32:01.466Z,101694.66
2022-08-22T13:34:40.536Z,101692.91
2022-08-22T13:37:17.989Z,101680.19
2022-08-22T13:39:56.128Z,101676.44
2022-08-22T13:42:30.918Z,101666.66
2022-08-22T13:45:02.265Z,101662.19
2022-08-22T13:47:32.348Z,101671.78
2022-08-22T13:50:35.789Z,101668.78
2022-08-22T13:53:29.820Z,101666.09
2022-08-22T13:56:05.492Z,101660.03
2022-08-22T13:58:40.279Z,101664.50
2022-08-22T14:01:19.553Z,101664.59
2022-08-22T14:04:28.972Z,101661.66
2022-08-22T14:07:03.705Z,101659.03
2022-08-22T14:09:53.004Z,101657.25
2022-08-22T14:12:28.679Z,101659.03
2022-08-22T14:15:03.566Z,101653.22
2022-08-22T14:17:42.363Z,101650.84
2022-08-22T14:20:32.136Z,101653.44
2022-08-22T14:23:07.900Z,101648.50
2022-08-22T14:25:39.139Z,101645.97
2022-08-22T14:28:21.276Z,101646.81
2022-08-22T14:31:07.205Z,101643.41
2022-08-22T14:33:39.731Z,101646.56
2022-08-22T14:36:21.189Z,101640.88
2022-08-22T14:38:56.386Z,101639.06
2022-08-22T14:41:52.294Z,101631.44
2022-08-22T14:44:52.257Z,101638.41
2022-08-22T14:47:55.010Z,101637.91
2022-08-22T14:51:08.560Z,101627.94
2022-08-22T14:53:38.583Z,101623.44
2022-08-22T14:56:28.137Z,101625.44
2022-08-22T14:59:02.720Z,101628.09
2022-08-22T15:01:33.299Z,101622.53
2022-08-22T15:04:10.087Z,101614.47
2022-08-22T15:06:48.174Z,101625.19
2022-08-22T15:09:30.988Z,101626.50
2022-08-22T15:11:58.210Z,101619.72
2022-08-22T15:14:37.028Z,101611.16
2022-08-22T15:17:08.437Z,101615.38
2022-08-22T15:19:42.435Z,101611.97
2022-08-22T15:22:27.911Z,101609.53
2022-08-22T15:25:12.338Z,101609.91
2022-08-22T15:28:20.439Z,101616.91
2022-08-22T15:31:03.442Z,101606.50
2022-08-22T15:33:32.464Z,101606.34
2022-08-22T15:36:12.099Z,101607.69
2022-08-22T15:38:48.642Z,101595.38
2022-08-22T15:41:36.982Z,101600.09
2022-08-22T15:44:14.872Z,101596.44
2022-08-22T15:47:02.971Z,101599.47
2022-08-22T15:49:38.957Z,101597.63
2022-08-22T15:52:19.478Z,101591.00
2022-08-22T15:54:55.061Z,101591.13
2022-08-22T15:57:50.952Z,101594.44
2022-08-22T16:00:27.855Z,101588.66
2022-08-22T16:02:57.360Z,101591.78
2022-08-22T16:05:51.891Z,101593.25
2022-08-22T16:08:27.885Z,101588.78
2022-08-22T16:11:02.006Z,101582.41
2022-08-22T16:13:31.758Z,101577.25
2022-08-22T16:16:45.485Z,101576.34
2022-08-22T16:19:25.287Z,101577.66
2022-08-22T16:21:51.724Z,101577.09
2022-08-22T16:24:18.172Z,101570.56
2022-08-22T16:26:45.912Z,101576.06
2022-08-22T16:29:17.549Z,101557.09
2022-08-22T16:31:44.645Z,101565.66
2022-08-22T16:34:17.467Z,101554.69
2022-08-22T16:36:51.856Z,101556.09
2022-08-22T16:39:21.471Z,101554.72
2022-08-22T16:42:15.964Z,101567.06
2022-08-22T16:44:46.801Z,101562.50
2022-08-22T16:47:17.767Z,101554.97
2022-08-22T16:49:50.306Z,101553.00
2022-08-22T16:52:28.951Z,101550.59
2022-08-22T16:55:06.369Z,101548.84
2022-08-22T16:58:12.209Z,101549.19
2022-08-22T17:01:06.276Z,101553.16
2022-08-22T17:03:32.792Z,101548.25
2022-08-22T17:06:36.704Z,101548.34
2022-08-22T17:09:25.974Z,101539.38
2022-08-22T17:12:06.913Z,101550.97
2022-08-22T17:15:07.278Z,101547.19
2022-08-22T17:18:11.682Z,101551.25
2022-08-22T17:21:11.634Z,101546.09
2022-08-22T17:24:10.272Z,101546.84
2022-08-22T17:27:07.367Z,101550.75
2022-08-22T17:29:56.928Z,101548.75
2022-08-22T17:32:32.559Z,101548.06
2022-08-22T17:35:20.702Z,101552.03
2022-08-22T17:38:00.823Z,101548.03
2022-08-22T17:40:37.328Z,101550.97
2022-08-22T17:43:33.665Z,101560.47
2022-08-22T17:46:35.891Z,101553.66
2022-08-22T17:49:40.742Z,101559.97
2022-08-22T17:52:35.728Z,101563.41
2022-08-22T17:55:05.555Z,101564.13
2022-08-22T17:57:50.495Z,101561.59
2022-08-22T18:00:39.172Z,101566.78
2022-08-22T18:03:08.757Z,101560.16
2022-08-22T18:06:09.889Z,101564.00
2022-08-22T18:09:15.240Z,101569.22
2022-08-22T18:11:52.015Z,101570.19
2022-08-22T18:14:33.271Z,101572.75
2022-08-22T18:17:42.597Z,101568.66
2022-08-22T18:20:17.569Z,101576.22
2022-08-22T18:22:54.027Z,101573.34
2022-08-22T18:25:20.535Z,101574.91
2022-08-22T18:28:25.514Z,101581.53
2022-08-22T18:31:02.056Z,101584.94
2022-08-22T18:33:33.204Z,101591.38
2022-08-22T18:36:30.257Z,101587.78
2022-08-22T18:39:06.922Z,101591.31
2022-08-22T18:42:07.363Z,101588.47
2022-08-22T18:44:36.824Z,101593.16
2022-08-22T18:47:35.164Z,101594.59
2022-08-22T18:50:41.830Z,101593.88
2022-08-22T18:53:38.358Z,101597.22
2022-08-22T18:56:50.364Z,101592.91
2022-08-22T18:59:59.259Z,101600.16
2022-08-22T19:02:55.656Z,101608.44
2022-08-22T19:05:37.869Z,101618.97
2022-08-22T19:08:35.440Z,101618.72
2022-08-22T19:11:12.829Z,101625.44
2022-08-22T19:13:42.196Z,101624.94
2022-08-22T19:16:26.365Z,101642.69
2022-08-22T19:19:17.124Z,101633.44
2022-08-22T19:22:19.374Z,101638.88
2022-08-22T19:25:15.350Z,101648.00
2022-08-22T19:28:11.641Z,101652.91
2022-08-22T19:30:44.266Z,101649.56
2022-08-22T19:33:19.638Z,101650.28
2022-08-22T19:36:35.217Z,101648.28
2022-08-22T19:39:04.480Z,101642.31
2022-08-22T19:41:46.285Z,101648.44
2022-08-22T19:44:37.634Z,101644.28
2022-08-22T19:47:50.463Z,101645.16
2022-08-22T19:50:16.935Z,101641.53
2022-08-22T19:52:56.499Z,101644.84
2022-08-22T19:55:38.179Z,101641.63
2022-08-22T19:58:33.047Z,101649.59
2022-08-22T20:01:37.392Z,101647.63
2022-08-22T20:04:22.814Z,101642.16
2022-08-22T20:07:02.162Z,101637.63
2022-08-22T20:09:46.187Z,101635.47
2022-08-22T20:12:16.101Z,101641.09
2022-08-22T20:14:45.646Z,101640.44
2022-08-22T20:17:42.182Z,101645.19
2022-08-22T20:20:38.248Z,101640.44
2022-08-22T20:23:25.150Z,101646.66
2022-08-22T20:25:57.118Z,101643.41
2022-08-22T20:28:29.623Z,101647.69
2022-08-22T20:31:03.423Z,101637.63
2022-08-22T20:33:34.922Z,101630.84
2022-08-22T20:36:21.188Z,101637.16
2022-08-22T20:38:58.628Z,101631.75
2022-08-22T20:41:35.618Z,101631.44
2022-08-22T20:44:15.932Z,101633.66
2022-08-22T20:47:24.377Z,101624.25
2022-08-22T20:49:57.581Z,101624.53
2022-08-22T20:52:28.538Z,101628.13
2022-08-22T20:55:17.794Z,101636.84
2022-08-22T20:58:02.645Z,101635.94
2022-08-22T21:00:44.302Z,101624.97
2022-08-22T21:03:32.535Z,101625.13
2022-08-22T21:06:43.288Z,101632.19
2022-08-22T21:09:46.993Z,101628.75
2022-08-22T21:12:14.118Z,101630.50
2022-08-22T21:14:47.167Z,101631.88
2022-08-22T21:17:33.677Z,101632.56
2022-08-22T21:20:21.395Z,101630.53
2022-08-22T21:22:48.439Z,101624.56
2022-08-22T21:25:15.033Z,101628.84
2022-08-22T21:27:47.785Z,101622.50
2022-08-22T21:30:22.858Z,101620.56
2022-08-22T21:32:55.531Z,101622.16
2022-08-22T21:35:29.942Z,101617.97
2022-08-22T21:37:58.068Z,101621.56
2022-08-22T21:40:37.067Z,101619.16
2022-08-22T21:43:10.571Z,101615.56
2022-08-22T21:45:43.358Z,101622.50
2022-08-22T21:48:40.676Z,101619.97
2022-08-22T21:51:23.650Z,101613.78
2022-08-22T21:54:03.698Z,101618.31
2022-08-22T21:56:37.283Z,101617.28
2022-08-22T21:59:26.692Z,101609.84
2022-08-22T22:02:28.456Z,101614.28
2022-08-22T22:04:56.281Z,101623.09
2022-08-22T22:07:24.124Z,101619.75
2022-08-22T22:09:54.650Z,101614.72
2022-08-22T22:12:22.942Z,101617.56
2022-08-22T22:14:50.104Z,101613.72
2022-08-22T22:17:19.068Z,101614.56
2022-08-22T22:19:46.491Z,101613.63
2022-08-22T22:22:13.368Z,101613.78
2022-08-22T22:24:39.969Z,101609.78
2022-08-22T22:27:07.296Z,101619.50
2022-08-22T22:29:34.750Z,101619.25
2022-08-22T22:32:01.683Z,101622.25
2022-08-22T22:34:28.203Z,101624.50
2022-08-22T22:37:22.831Z,101622.47
2022-08-22T22:39:49.636Z,101614.69
2022-08-22T22:42:16.140Z,101618.97
2022-08-22T22:44:47.442Z,101620.66
2022-08-22T22:47:29.532Z,101624.56
2022-08-22T22:49:56.644Z,101618.13
2022-08-22T22:52:24.614Z,101624.03
2022-08-22T22:54:52.585Z,101628.31
2022-08-22T22:57:42.568Z,101628.31
2022-08-22T23:00:12.959Z,101626.63
2022-08-22T23:02:40.747Z,101636.28
2022-08-22T23:05:09.390Z,101631.28
2022-08-22T23:07:37.950Z,101627.06
2022-08-22T23:10:07.094Z,101623.28
2022-08-22T23:12:35.738Z,101621.84
2022-08-22T23:15:02.798Z,101622.91
2022-08-22T23:18:06.237Z,101625.19
2022-08-22T23:20:33.057Z,101625.13
2022-08-22T23:22:59.883Z,101626.94
2022-08-22T23:25:26.898Z,101622.66
2022-08-22T23:27:53.953Z,101620.94
2022-08-22T23:30:21.696Z,101621.66
2022-08-22T23:32:48.340Z,101619.94
2022-08-22T23:35:14.843Z,101626.03
2022-08-22T23:37:41.553Z,101620.84
2022-08-22T23:40:09.640Z,101620.97
2022-08-22T23:42:36.223Z,101618.00
2022-08-22T23:45:03.405Z,101608.47
2022-08-22T23:47:30.163Z,101607.78
2022-08-22T23:49:56.730Z,101601.91
2022-08-22T23:52:23.239Z,101599.22
2022-08-22T23:54:54.276Z,101605.66
2022-08-22T23:57:26.560Z,101596.53
2022-08-22T23:59:57.608Z,101599.44
